Time;durP1;ratioP1;P1;durP2;ratioP2;P2;SDS_P1;SDS_P2;PMS_P1;PMS_P2;Temp;Humidity;BMP_temperature;BMP_pressure;BME280_temperature;BME280_humidity;BME280_pressure;Samples;Min_cycle;Max_cycle;Signal;HPM_P1;HPM_P2
2021/09/06 00:00:04;;;;;;;15.13;6.80;;;14.60;87.00;;;;;;6285377;22;20070;-75
2021/09/06 00:02:40;;;;;;;12.15;6.13;;;14.60;87.00;;;;;;6314732;22;20023;-75
2021/09/06 00:05:09;;;;;;;13.63;7.53;;;14.60;87.00;;;;;;6313695;22;20119;-75
2021/09/06 00:07:36;;;;;;;12.40;6.63;;;14.60;86.80;;;;;;6287859;22;20034;-75
2021/09/06 00:10:26;;;;;;;13.80;6.35;;;14.50;86.80;;;;;;6315109;22;20342;-75
2021/09/06 00:12:53;;;;;;;13.95;7.10;;;14.50;86.90;;;;;;6313629;22;20037;-75
2021/09/06 00:15:21;;;;;;;14.68;6.72;;;14.50;87.00;;;;;;6314341;22;20019;-75
2021/09/06 00:17:49;;;;;;;14.27;6.05;;;14.50;87.00;;;;;;6313981;22;20023;-75
2021/09/06 00:20:16;;;;;;;15.63;7.07;;;14.40;87.00;;;;;;6288043;22;20015;-74
2021/09/06 00:22:44;;;;;;;13.82;6.28;;;14.40;87.10;;;;;;6314183;22;20334;-76
2021/09/06 00:25:11;;;;;;;12.70;6.85;;;14.40;87.10;;;;;;6288066;22;20027;-75
2021/09/06 00:27:38;;;;;;;16.35;6.82;;;14.30;87.40;;;;;;6315227;22;20322;-75
2021/09/06 00:30:07;;;;;;;14.75;7.10;;;14.30;87.50;;;;;;6315353;22;20336;-76
2021/09/06 00:32:34;;;;;;;12.70;5.75;;;14.30;87.50;;;;;;6314959;22;20031;-75
2021/09/06 00:35:03;;;;;;;15.27;7.13;;;14.30;87.40;;;;;;6315513;22;20226;-75
2021/09/06 00:37:30;;;;;;;15.43;7.53;;;14.20;87.60;;;;;;6288610;22;20019;-74
2021/09/06 00:39:58;;;;;;;14.57;6.70;;;14.20;87.70;;;;;;6289354;22;20076;-75
2021/09/06 00:42:25;;;;;;;11.50;6.30;;;14.10;87.90;;;;;;6288747;22;20027;-74
2021/09/06 00:44:53;;;;;;;13.73;5.53;;;14.10;87.80;;;;;;6288519;22;20236;-75
2021/09/06 00:47:20;;;;;;;14.30;6.65;;;14.10;87.70;;;;;;6288597;22;20015;-75
2021/09/06 00:49:47;;;;;;;14.02;6.32;;;14.10;88.00;;;;;;6324308;22;20027;-75
2021/09/06 00:52:16;;;;;;;13.50;6.47;;;14.10;88.00;;;;;;6298972;22;20015;-76
2021/09/06 00:54:43;;;;;;;11.23;5.75;;;14.10;88.10;;;;;;6288982;22;20039;-75
2021/09/06 00:57:10;;;;;;;13.80;6.45;;;14.10;88.10;;;;;;6288532;22;20086;-75
2021/09/06 00:59:38;;;;;;;16.42;6.75;;;14.10;88.10;;;;;;6315774;22;20019;-75
2021/09/06 01:02:06;;;;;;;13.52;6.45;;;14.10;88.10;;;;;;6310906;22;20037;-75
2021/09/06 01:04:34;;;;;;;13.95;5.82;;;14.10;88.20;;;;;;6315133;22;20035;-75
2021/09/06 01:07:38;;;;;;;13.80;6.28;;;14.10;88.30;;;;;;6266421;22;20038;-75
2021/09/06 01:10:22;;;;;;;15.30;6.65;;;14.00;88.30;;;;;;6286784;22;20330;-75
2021/09/06 01:13:01;;;;;;;11.20;5.63;;;13.90;88.40;;;;;;6290667;22;20015;-75
2021/09/06 01:15:33;;;;;;;14.35;7.03;;;13.90;88.50;;;;;;6287901;22;20019;-75
2021/09/06 01:18:02;;;;;;;13.90;6.85;;;13.90;88.40;;;;;;6289038;22;20038;-74
2021/09/06 01:20:36;;;;;;;10.37;4.81;;;13.90;88.50;;;;;;3945610;22;10002326;-76
2021/09/06 01:23:05;;;;;;;14.25;6.40;;;13.80;88.60;;;;;;2819631;22;10002076;-77
2021/09/06 01:26:09;;;;;;;18.75;6.85;;;13.80;88.50;;;;;;6288539;22;20280;-75
2021/09/06 01:28:37;;;;;;;17.25;6.32;;;13.80;88.50;;;;;;6288047;22;20019;-75
2021/09/06 01:31:06;;;;;;;11.98;5.70;;;13.80;88.40;;;;;;6287508;22;20022;-75
2021/09/06 01:33:40;;;;;;;15.05;6.97;;;13.70;88.50;;;;;;6315445;22;20033;-75
2021/09/06 01:36:08;;;;;;;12.95;6.82;;;13.70;88.50;;;;;;6287525;22;20015;-75
2021/09/06 01:38:43;;;;;;;14.52;5.95;;;13.70;88.60;;;;;;6287475;22;20022;-75
2021/09/06 01:41:12;;;;;;;11.65;6.03;;;13.70;88.70;;;;;;6314121;22;20047;-75
2021/09/06 01:43:39;;;;;;;14.13;6.43;;;13.70;88.60;;;;;;6286396;22;20026;-74
2021/09/06 01:46:06;;;;;;;12.88;5.57;;;13.60;88.70;;;;;;6287177;22;20023;-74
2021/09/06 01:48:36;;;;;;;15.50;6.00;;;13.70;88.70;;;;;;6286145;22;20019;-74
2021/09/06 01:51:03;;;;;;;11.48;6.13;;;13.70;88.70;;;;;;6313839;22;20073;-74
2021/09/06 01:53:32;;;;;;;13.48;5.90;;;13.70;88.60;;;;;;6286862;22;20037;-74
2021/09/06 01:56:01;;;;;;;14.52;6.43;;;13.60;88.90;;;;;;6287012;22;20396;-75
2021/09/06 01:58:31;;;;;;;13.25;6.18;;;13.60;88.90;;;;;;6285275;22;20368;-76
2021/09/06 02:00:58;;;;;;;13.50;6.35;;;13.60;88.90;;;;;;6281047;22;20015;-75
2021/09/06 02:03:34;;;;;;;11.57;5.50;;;13.60;88.70;;;;;;6286429;22;20064;-75
2021/09/06 02:06:02;;;;;;;12.05;6.28;;;13.70;88.50;;;;;;6284790;22;20023;-75
2021/09/06 02:08:45;;;;;;;12.07;5.55;;;13.70;88.50;;;;;;6286322;22;20023;-74
2021/09/06 02:11:13;;;;;;;13.25;6.40;;;13.60;88.40;;;;;;6286849;22;20023;-74
2021/09/06 02:13:42;;;;;;;11.23;6.13;;;13.60;88.50;;;;;;6286845;22;20023;-74
2021/09/06 02:16:10;;;;;;;12.13;5.80;;;13.60;88.60;;;;;;6315308;22;20082;-74
2021/09/06 02:18:41;;;;;;;14.52;7.13;;;13.40;88.70;;;;;;6287897;22;20087;-75
2021/09/06 02:21:08;;;;;;;15.18;7.22;;;13.40;89.00;;;;;;6287634;22;20349;-75
2021/09/06 02:23:37;;;;;;;16.55;8.27;;;13.40;89.00;;;;;;6288421;22;20027;-75
2021/09/06 02:26:04;;;;;;;15.98;6.50;;;13.40;89.00;;;;;;6315587;22;20015;-75
2021/09/06 02:28:35;;;;;;;12.68;5.78;;;13.40;89.00;;;;;;6287785;22;20019;-75
2021/09/06 02:31:07;;;;;;;12.18;6.35;;;13.40;88.90;;;;;;6289369;22;20023;-75
2021/09/06 02:33:55;;;;;;;12.68;5.75;;;13.40;88.90;;;;;;6238298;22;20314;-74
2021/09/06 02:36:32;;;;;;;14.32;6.80;;;13.40;88.90;;;;;;6288103;22;20027;-75
2021/09/06 02:39:00;;;;;;;14.57;6.45;;;13.40;88.80;;;;;;6288012;22;20214;-73
2021/09/06 02:41:27;;;;;;;15.73;7.78;;;13.40;88.90;;;;;;6288007;22;20019;-75
2021/09/06 02:43:54;;;;;;;13.80;6.70;;;13.30;89.00;;;;;;6313746;22;20062;-75
2021/09/06 02:46:23;;;;;;;18.42;7.00;;;13.30;88.90;;;;;;6288763;22;20019;-75
2021/09/06 02:48:50;;;;;;;17.80;6.55;;;13.30;88.90;;;;;;6290157;22;20023;-74
2021/09/06 02:51:21;;;;;;;14.55;6.93;;;13.30;88.90;;;;;;6289193;22;20353;-75
2021/09/06 02:53:48;;;;;;;11.85;6.40;;;13.30;88.90;;;;;;6289811;22;20023;-74
2021/09/06 02:56:15;;;;;;;12.95;6.45;;;13.30;88.90;;;;;;6289880;22;20023;-75
2021/09/06 02:58:45;;;;;;;15.02;5.90;;;13.30;88.90;;;;;;6289961;22;20222;-74
2021/09/06 03:01:12;;;;;;;11.60;5.32;;;13.30;88.80;;;;;;6312558;22;20046;-75
2021/09/06 03:03:41;;;;;;;14.48;6.07;;;13.20;89.00;;;;;;6289231;22;21337;-75
2021/09/06 03:06:11;;;;;;;15.63;6.65;;;13.20;89.00;;;;;;6290186;22;20015;-75
2021/09/06 03:08:39;;;;;;;13.40;6.65;;;13.20;89.10;;;;;;6288535;22;22397;-75
2021/09/06 03:11:08;;;;;;;14.93;7.00;;;13.20;89.10;;;;;;6316120;22;20015;-75
2021/09/06 03:13:37;;;;;;;14.77;6.60;;;13.20;89.00;;;;;;6289346;22;20030;-74
2021/09/06 03:16:06;;;;;;;17.77;7.00;;;13.10;89.00;;;;;;6289810;22;20074;-74
2021/09/06 03:18:33;;;;;;;13.50;6.45;;;13.10;89.10;;;;;;6287375;22;20322;-74
2021/09/06 03:21:37;;;;;;;14.48;7.03;;;13.10;89.00;;;;;;6278025;22;20033;-74
2021/09/06 03:24:08;;;;;;;10.77;6.15;;;13.10;89.10;;;;;;6288033;22;20211;-74
2021/09/06 03:26:36;;;;;;;13.13;6.93;;;13.10;89.10;;;;;;6287509;22;20031;-75
2021/09/06 03:29:05;;;;;;;13.02;5.80;;;13.10;89.00;;;;;;6288961;22;20015;-75
2021/09/06 03:31:33;;;;;;;14.85;6.80;;;13.00;89.00;;;;;;6287297;22;20031;-75
2021/09/06 03:34:00;;;;;;;13.30;6.68;;;13.00;89.10;;;;;;6288078;22;20027;-75
2021/09/06 03:36:30;;;;;;;13.40;6.10;;;13.00;89.10;;;;;;6325278;22;20019;-75
2021/09/06 03:38:59;;;;;;;15.65;6.38;;;13.00;89.10;;;;;;6294810;22;20030;-75
2021/09/06 03:41:33;;;;;;;14.15;6.53;;;13.00;89.00;;;;;;6287045;22;20027;-74
2021/09/06 03:44:01;;;;;;;12.77;6.80;;;13.00;89.00;;;;;;6282131;22;20047;-74
2021/09/06 03:46:30;;;;;;;17.95;7.38;;;12.90;89.00;;;;;;6282232;22;20230;-75
2021/09/06 03:48:59;;;;;;;13.50;6.93;;;12.90;89.00;;;;;;6283656;22;20016;-74
2021/09/06 03:51:26;;;;;;;13.90;6.93;;;12.90;88.90;;;;;;6282427;22;20071;-75
2021/09/06 03:53:55;;;;;;;14.05;6.13;;;12.90;89.00;;;;;;6282958;22;20046;-75
2021/09/06 03:56:26;;;;;;;14.18;6.32;;;12.90;88.90;;;;;;6283613;22;20069;-74
2021/09/06 03:58:53;;;;;;;13.00;6.13;;;12.80;89.00;;;;;;6284323;22;20028;-74
2021/09/06 04:01:20;;;;;;;13.90;6.63;;;12.90;89.10;;;;;;6280146;22;20038;-76
2021/09/06 04:03:49;;;;;;;13.40;7.07;;;12.80;89.30;;;;;;6284412;22;20078;-74
2021/09/06 04:06:16;;;;;;;15.77;6.63;;;12.70;89.40;;;;;;6285062;22;20319;-74
2021/09/06 04:08:46;;;;;;;14.55;6.47;;;12.80;89.40;;;;;;6283725;22;20285;-74
2021/09/06 04:11:15;;;;;;;13.80;6.30;;;12.80;89.30;;;;;;6283589;22;20046;-74
2021/09/06 04:13:44;;;;;;;12.32;6.00;;;12.70;89.30;;;;;;6285889;22;20024;-74
2021/09/06 04:16:11;;;;;;;13.55;6.13;;;12.70;89.30;;;;;;6284227;22;20027;-75
2021/09/06 04:18:40;;;;;;;15.40;6.70;;;12.80;89.30;;;;;;6283372;22;20055;-75
2021/09/06 04:21:07;;;;;;;17.90;7.25;;;12.80;89.10;;;;;;6283861;22;20031;-75
2021/09/06 04:23:39;;;;;;;15.10;6.37;;;12.70;89.10;;;;;;6283985;22;20261;-75
2021/09/06 04:26:07;;;;;;;;;;;12.80;89.00;;;;;;6284467;22;20409;-74
2021/09/06 04:28:41;;;;;;;15.85;6.43;;;12.70;89.10;;;;;;6283398;22;19919;-75
2021/09/06 04:31:09;;;;;;;15.60;6.45;;;12.70;89.20;;;;;;6284215;22;20323;-75
2021/09/06 04:33:37;;;;;;;14.82;6.35;;;12.70;89.10;;;;;;6283997;22;20027;-74
2021/09/06 04:36:05;;;;;;;12.40;6.32;;;12.70;89.30;;;;;;6283745;22;20015;-74
2021/09/06 04:38:45;;;;;;;12.20;5.93;;;12.60;89.30;;;;;;6284003;22;20028;-75
2021/09/06 04:41:13;;;;;;;10.70;5.78;;;12.60;89.50;;;;;;6283788;22;20254;-74
2021/09/06 04:43:40;;;;;;;17.48;6.80;;;12.60;89.50;;;;;;6288382;22;20023;-74
2021/09/06 04:46:11;;;;;;;14.23;7.35;;;12.60;89.70;;;;;;6317458;22;20058;-74
2021/09/06 04:48:39;;;;;;;11.57;6.25;;;12.60;89.70;;;;;;6288372;22;20019;-73
2021/09/06 04:51:07;;;;;;;13.15;6.60;;;12.60;89.70;;;;;;6288780;22;20030;-74
2021/09/06 04:53:35;;;;;;;14.80;6.22;;;12.60;89.50;;;;;;6288327;22;20027;-75
2021/09/06 04:56:05;;;;;;;13.68;7.00;;;12.70;89.40;;;;;;6288794;22;20330;-73
2021/09/06 04:58:38;;;;;;;14.57;6.65;;;12.70;89.40;;;;;;6287014;22;20027;-74
2021/09/06 05:01:05;;;;;;;18.17;6.63;;;12.70;89.40;;;;;;6282252;22;20203;-75
2021/09/06 05:03:34;;;;;;;14.35;7.53;;;12.70;89.30;;;;;;6314524;22;20324;-74
2021/09/06 05:06:06;;;;;;;12.10;6.97;;;12.70;89.20;;;;;;6287992;22;20015;-74
2021/09/06 05:08:34;;;;;;;13.18;6.55;;;12.80;89.20;;;;;;6286729;22;20023;-74
2021/09/06 05:11:01;;;;;;;15.38;7.22;;;12.80;89.00;;;;;;6288282;22;20063;-74
2021/09/06 05:13:31;;;;;;;13.45;6.75;;;12.80;89.10;;;;;;6286221;22;20019;-74
2021/09/06 05:15:59;;;;;;;13.55;6.90;;;12.80;88.90;;;;;;6285816;22;20039;-74
2021/09/06 05:18:27;;;;;;;14.73;6.65;;;12.80;89.00;;;;;;6285924;22;20035;-74
2021/09/06 05:20:58;;;;;;;15.65;7.35;;;12.90;88.90;;;;;;6287305;22;20015;-75
2021/09/06 05:23:26;;;;;;;12.93;6.93;;;12.90;88.60;;;;;;6286800;22;20057;-74
2021/09/06 05:25:54;;;;;;;14.18;6.97;;;12.90;88.50;;;;;;6284239;22;20015;-74
2021/09/06 05:28:25;;;;;;;15.45;5.97;;;13.00;88.80;;;;;;6285125;22;20074;-76
2021/09/06 05:30:55;;;;;;;16.05;7.18;;;13.00;88.50;;;;;;6314222;22;20019;-74
2021/09/06 05:33:24;;;;;;;15.68;7.25;;;13.00;88.50;;;;;;6287144;22;20079;-74
2021/09/06 05:35:53;;;;;;;17.10;7.45;;;13.10;88.40;;;;;;6287211;22;20019;-75
2021/09/06 05:38:23;;;;;;;16.90;6.05;;;13.10;88.50;;;;;;6288117;22;20026;-74
2021/09/06 05:41:08;;;;;;;13.60;6.68;;;13.10;88.40;;;;;;6315383;22;20065;-74
2021/09/06 05:43:36;;;;;;;14.80;6.45;;;13.20;88.40;;;;;;6287823;22;20034;-75
2021/09/06 05:46:05;;;;;;;16.15;7.75;;;13.20;88.30;;;;;;6287369;22;20023;-75
2021/09/06 05:48:34;;;;;;;12.55;6.60;;;13.20;88.30;;;;;;6287385;22;20025;-74
2021/09/06 05:51:01;;;;;;;16.23;7.10;;;13.30;88.10;;;;;;6315832;22;20011;-76
2021/09/06 05:53:57;;;;;;;14.13;7.47;;;13.30;88.00;;;;;;6287517;22;20019;-75
2021/09/06 05:56:24;;;;;;;16.75;7.95;;;13.40;87.90;;;;;;6315423;22;20249;-74
2021/09/06 05:58:53;;;;;;;17.33;7.90;;;13.40;87.90;;;;;;6288358;22;20041;-76
2021/09/06 06:01:20;;;;;;;15.00;6.95;;;13.50;87.70;;;;;;6283374;22;20027;-75
2021/09/06 06:03:48;;;;;;;18.02;7.68;;;13.60;87.60;;;;;;6288957;22;20023;-74
2021/09/06 06:06:20;;;;;;;16.20;7.40;;;13.60;87.30;;;;;;6289587;22;20322;-73
2021/09/06 06:08:49;;;;;;;13.05;6.28;;;13.60;87.20;;;;;;6289797;22;20245;-74
2021/09/06 06:11:18;;;;;;;19.70;7.18;;;13.60;87.10;;;;;;6317420;22;20021;-74
2021/09/06 06:13:46;;;;;;;20.23;7.78;;;13.70;87.40;;;;;;6288543;22;20022;-74
2021/09/06 06:16:13;;;;;;;15.18;6.30;;;13.80;87.10;;;;;;6287927;22;20070;-74
2021/09/06 06:18:41;;;;;;;16.15;7.90;;;13.80;87.00;;;;;;6312374;22;20060;-76
2021/09/06 06:21:11;;;;;;;;;;;13.90;86.70;;;;;;6287962;22;20030;-75
2021/09/06 06:24:01;;;;;;;15.82;6.95;;;13.90;86.60;;;;;;6289994;22;19987;-75
2021/09/06 06:26:41;;;;;;;15.30;7.00;;;14.10;86.60;;;;;;6290152;22;20337;-75
2021/09/06 06:29:10;;;;;;;14.98;7.60;;;14.20;86.50;;;;;;6290620;22;20023;-74
2021/09/06 06:31:39;;;;;;;16.60;7.97;;;14.20;86.10;;;;;;6290311;22;20033;-74
2021/09/06 06:34:08;;;;;;;16.92;7.63;;;14.30;86.00;;;;;;6290670;22;20061;-74
2021/09/06 06:36:38;;;;;;;15.48;7.18;;;14.40;85.90;;;;;;6289964;22;20086;-76
2021/09/06 06:39:06;;;;;;;15.98;8.20;;;14.40;85.60;;;;;;6288838;22;20045;-74
2021/09/06 06:41:35;;;;;;;13.93;7.15;;;14.50;85.60;;;;;;6288806;22;20220;-75
2021/09/06 06:44:11;;;;;;;14.55;7.25;;;14.60;85.30;;;;;;6283325;22;20078;-75
2021/09/06 06:46:38;;;;;;;14.73;7.90;;;14.70;85.20;;;;;;6282819;22;20020;-75
2021/09/06 06:49:06;;;;;;;15.68;6.90;;;14.80;85.10;;;;;;6284638;22;20023;-76
2021/09/06 06:51:35;;;;;;;14.18;7.20;;;14.90;85.20;;;;;;6282388;22;20038;-75
2021/09/06 06:54:04;;;;;;;15.77;8.13;;;15.10;84.30;;;;;;6282195;22;20015;-76
2021/09/06 06:56:36;;;;;;;17.83;8.98;;;15.20;84.30;;;;;;6282169;22;20481;-76
2021/09/06 06:59:08;;;;;;;15.30;7.93;;;15.30;83.80;;;;;;6283488;22;20030;-76
2021/09/06 07:01:36;;;;;;;16.02;7.97;;;15.30;83.70;;;;;;6276738;22;20307;-76
2021/09/06 07:04:04;;;;;;;12.85;6.47;;;15.40;83.60;;;;;;6284964;22;20062;-75
2021/09/06 07:06:35;;;;;;;15.23;7.05;;;15.50;83.40;;;;;;6282344;22;20334;-75
2021/09/06 07:09:02;;;;;;;14.35;8.43;;;15.60;83.50;;;;;;6283147;22;20016;-76
2021/09/06 07:11:30;;;;;;;17.73;7.60;;;15.60;83.40;;;;;;6281625;22;20019;-75
2021/09/06 07:14:02;;;;;;;13.43;6.55;;;15.70;83.40;;;;;;6281810;22;20032;-76
2021/09/06 07:16:30;;;;;;;16.88;8.70;;;15.80;83.00;;;;;;6282023;22;20027;-75
2021/09/06 07:18:59;;;;;;;17.40;7.57;;;15.90;83.10;;;;;;6284739;22;20023;-76
2021/09/06 07:21:27;;;;;;;17.13;8.05;;;16.00;82.80;;;;;;6283611;22;20042;-75
2021/09/06 07:23:55;;;;;;;16.55;8.30;;;16.10;82.70;;;;;;6284160;22;20259;-76
2021/09/06 07:26:23;;;;;;;17.75;7.85;;;16.20;82.60;;;;;;6283456;22;20020;-76
2021/09/06 07:28:53;;;;;;;18.73;8.18;;;16.30;82.40;;;;;;6284030;22;20231;-75
2021/09/06 07:31:20;;;;;;;15.52;6.95;;;16.40;82.20;;;;;;6283915;22;20071;-76
2021/09/06 07:33:48;;;;;;;14.82;7.50;;;16.60;81.80;;;;;;6282766;22;20042;-75
2021/09/06 07:36:17;;;;;;;17.60;8.57;;;16.80;81.70;;;;;;6285335;22;20015;-75
2021/09/06 07:38:44;;;;;;;17.17;8.20;;;16.90;81.30;;;;;;6283827;22;20019;-75
2021/09/06 07:41:12;;;;;;;19.83;8.80;;;17.00;81.30;;;;;;6283523;22;20019;-73
2021/09/06 07:43:41;;;;;;;17.38;7.93;;;17.20;80.80;;;;;;6287224;22;20027;-75
2021/09/06 07:46:09;;;;;;;16.25;8.57;;;17.20;80.80;;;;;;6288843;22;20012;-75
2021/09/06 07:48:36;;;;;;;15.07;6.78;;;17.40;79.70;;;;;;6287468;22;20270;-75
2021/09/06 07:51:04;;;;;;;14.07;7.22;;;17.50;79.90;;;;;;6288919;22;20078;-75
2021/09/06 07:53:32;;;;;;;14.52;6.88;;;17.60;79.50;;;;;;6288211;22;20200;-75
2021/09/06 07:56:01;;;;;;;14.57;6.07;;;17.80;79.10;;;;;;6289044;22;20141;-75
2021/09/06 07:58:32;;;;;;;11.88;6.30;;;18.00;78.20;;;;;;6288122;22;20027;-74
2021/09/06 08:01:00;;;;;;;18.60;6.68;;;18.10;78.40;;;;;;6284223;22;20029;-76
2021/09/06 08:03:31;;;;;;;15.40;6.60;;;18.20;78.00;;;;;;6290039;22;20023;-77
2021/09/06 08:05:58;;;;;;;13.95;6.57;;;18.30;77.90;;;;;;6290432;22;20026;-77
2021/09/06 08:08:25;;;;;;;14.70;7.38;;;18.50;77.10;;;;;;6291020;22;20019;-76
2021/09/06 08:10:57;;;;;;;12.75;6.55;;;18.60;76.90;;;;;;6290906;22;20076;-76
2021/09/06 08:13:30;;;;;;;13.57;6.28;;;18.70;76.90;;;;;;6287920;22;20263;-76
2021/09/06 08:15:57;;;;;;;13.82;6.28;;;18.90;76.70;;;;;;6288331;22;20224;-77
2021/09/06 08:18:25;;;;;;;13.40;6.57;;;19.00;76.50;;;;;;6288693;22;20026;-77
2021/09/06 08:20:53;;;;;;;11.85;6.38;;;19.10;76.30;;;;;;6288497;22;20254;-76
2021/09/06 08:23:22;;;;;;;12.75;5.63;;;19.20;76.20;;;;;;6288957;22;20038;-78
2021/09/06 08:25:51;;;;;;;;;;;19.40;75.50;;;;;;6291017;22;20111;-77
2021/09/06 08:28:20;;;;;;;12.52;6.30;;;19.50;75.70;;;;;;6315637;22;19941;-77
2021/09/06 08:30:48;;;;;;;18.50;8.20;;;19.70;74.90;;;;;;6290331;22;20073;-77
2021/09/06 08:33:15;;;;;;;17.70;9.98;;;19.80;74.70;;;;;;6289434;22;20031;-77
2021/09/06 08:35:42;;;;;;;15.90;7.63;;;19.90;74.00;;;;;;6315025;22;20055;-77
2021/09/06 08:38:10;;;;;;;12.38;6.75;;;20.00;73.80;;;;;;6290031;22;20063;-77
2021/09/06 08:40:38;;;;;;;11.30;6.45;;;20.10;73.90;;;;;;6289097;22;20326;-77
2021/09/06 08:43:07;;;;;;;14.65;6.40;;;20.20;73.70;;;;;;6290766;22;20030;-77
2021/09/06 08:45:40;;;;;;;12.60;5.97;;;20.40;73.10;;;;;;6289086;22;20086;-77
2021/09/06 08:48:08;;;;;;;12.63;6.60;;;20.40;72.70;;;;;;6289278;22;20027;-77
2021/09/06 08:50:36;;;;;;;12.60;6.47;;;20.60;72.30;;;;;;6287960;22;20065;-78
2021/09/06 08:53:06;;;;;;;12.52;6.25;;;20.80;71.20;;;;;;6287314;22;20023;-75
2021/09/06 08:55:34;;;;;;;11.57;6.32;;;21.00;71.80;;;;;;6286786;22;20023;-75
2021/09/06 08:58:01;;;;;;;14.40;5.97;;;21.00;71.20;;;;;;6288548;22;20015;-75
2021/09/06 09:00:31;;;;;;;11.63;5.90;;;21.20;71.00;;;;;;6282253;22;20025;-75
2021/09/06 09:03:26;;;;;;;12.10;6.18;;;21.30;71.20;;;;;;6307714;22;20038;-76
2021/09/06 09:06:12;;;;;;;13.30;6.22;;;21.50;69.40;;;;;;6288415;22;20015;-75
2021/09/06 09:09:12;;;;;;;15.50;8.45;;;21.60;69.80;;;;;;6247007;22;20033;-74
2021/09/06 09:12:07;;;;;;;15.35;6.90;;;21.80;69.50;;;;;;6287436;22;20069;-74
2021/09/06 09:14:57;;;;;;;13.27;6.70;;;21.90;68.90;;;;;;6287669;22;20199;-73
2021/09/06 09:17:52;;;;;;;12.70;5.85;;;22.10;68.50;;;;;;6287381;22;20366;-74
2021/09/06 09:20:41;;;;;;;10.43;5.60;;;22.30;67.30;;;;;;6288925;22;20069;-73
2021/09/06 09:23:41;;;;;;;11.80;6.00;;;22.50;67.30;;;;;;6282346;22;20019;-77
2021/09/06 09:26:15;;;;;;;9.35;5.85;;;22.80;66.70;;;;;;6292149;22;20021;-77
2021/09/06 09:29:01;;;;;;;12.00;6.28;;;23.10;66.30;;;;;;6289685;22;20250;-77
2021/09/06 09:31:54;;;;;;;13.90;6.35;;;23.30;65.30;;;;;;6316784;22;20062;-76
2021/09/06 09:34:45;;;;;;;10.60;5.88;;;23.60;64.00;;;;;;6290147;22;20030;-76
2021/09/06 09:37:31;;;;;;;11.27;5.82;;;24.10;62.10;;;;;;6316648;22;20077;-76
2021/09/06 09:40:00;;;;;;;10.93;6.32;;;24.50;61.00;;;;;;6318568;22;20027;-76
2021/09/06 09:42:29;;;;;;;11.50;6.38;;;25.00;58.10;;;;;;6317743;22;20111;-75
2021/09/06 09:44:58;;;;;;;11.20;6.35;;;25.60;57.10;;;;;;6316159;22;20015;-75
2021/09/06 09:47:53;;;;;;;10.93;5.40;;;26.10;55.50;;;;;;6316875;22;20341;-75
2021/09/06 09:50:22;;;;;;;10.70;6.20;;;26.60;53.20;;;;;;6314782;22;20019;-74
2021/09/06 09:52:52;;;;;;;9.85;5.78;;;27.10;50.60;;;;;;6315347;22;20317;-74
2021/09/06 09:55:19;;;;;;;;;;;27.50;50.60;;;;;;6315628;22;20065;-74
2021/09/06 09:57:47;;;;;;;8.93;5.75;;;27.70;48.30;;;;;;6312217;22;19910;-74
2021/09/06 10:00:16;;;;;;;;;;;27.70;48.40;;;;;;6308910;22;20061;-74
2021/09/06 10:02:48;;;;;;;9.25;5.15;;;27.50;48.50;;;;;;6286094;22;19922;-74
2021/09/06 10:05:15;;;;;;;10.23;5.65;;;27.50;49.70;;;;;;6313947;22;20373;-74
2021/09/06 10:07:47;;;;;;;12.55;5.53;;;27.70;48.70;;;;;;6312816;22;20027;-75
2021/09/06 10:10:19;;;;;;;12.95;5.15;;;28.10;48.00;;;;;;6314067;22;20314;-73
2021/09/06 10:12:49;;;;;;;8.43;4.75;;;29.00;45.70;;;;;;6311987;22;20027;-73
2021/09/06 10:15:17;;;;;;;9.50;5.28;;;30.10;43.20;;;;;;6313866;22;20046;-74
2021/09/06 10:17:48;;;;;;;7.80;4.63;;;30.60;41.50;;;;;;6311838;22;20022;-73
2021/09/06 10:20:19;;;;;;;8.65;4.82;;;31.60;40.10;;;;;;6313921;22;20026;-74
2021/09/06 10:23:01;;;;;;;10.88;5.07;;;31.60;38.40;;;;;;6286423;22;20019;-74
2021/09/06 10:25:33;;;;;;;10.10;5.28;;;32.40;37.40;;;;;;6286088;22;20046;-73
2021/09/06 10:28:05;;;;;;;8.70;4.47;;;33.00;35.10;;;;;;6286608;22;20091;-73
2021/09/06 10:30:35;;;;;;;8.52;4.53;;;33.60;32.30;;;;;;6313460;22;20209;-74
2021/09/06 10:33:03;;;;;;;8.98;3.75;;;34.50;33.20;;;;;;6319159;22;20015;-73
2021/09/06 10:35:33;;;;;;;8.77;4.55;;;34.70;30.70;;;;;;6319210;22;20038;-73
2021/09/06 10:38:06;;;;;;;6.57;4.30;;;35.20;30.60;;;;;;6314987;22;20353;-74
2021/09/06 10:40:37;;;;;;;7.95;4.47;;;35.60;29.10;;;;;;6314037;22;20027;-74
2021/09/06 10:43:16;;;;;;;8.13;3.75;;;35.90;29.10;;;;;;6314955;22;20031;-73
2021/09/06 10:45:46;;;;;;;7.30;3.78;;;36.00;27.80;;;;;;6314127;22;20029;-74
2021/09/06 10:48:18;;;;;;;8.48;3.75;;;36.00;28.20;;;;;;6315238;22;20220;-73
2021/09/06 10:50:46;;;;;;;7.65;4.28;;;36.50;27.70;;;;;;6313838;22;20026;-74
2021/09/06 10:53:17;;;;;;;7.27;3.97;;;37.00;27.00;;;;;;6314496;22;20074;-74
2021/09/06 10:55:50;;;;;;;6.30;3.42;;;37.20;26.40;;;;;;6313776;22;20089;-74
2021/09/06 10:58:17;;;;;;;7.32;4.30;;;37.00;26.20;;;;;;6313607;22;20222;-74
2021/09/06 11:00:50;;;;;;;9.47;4.23;;;37.30;26.50;;;;;;6309053;22;20023;-74
2021/09/06 11:03:18;;;;;;;7.43;4.18;;;37.60;24.80;;;;;;6287985;22;20429;-74
2021/09/06 11:05:52;;;;;;;6.57;4.23;;;38.00;26.20;;;;;;6314638;22;20019;-74
2021/09/06 11:08:25;;;;;;;9.63;3.38;;;39.00;25.00;;;;;;6315354;22;20214;-73
2021/09/06 11:10:54;;;;;;;6.10;3.22;;;38.90;24.10;;;;;;6289202;22;20023;-74
2021/09/06 11:13:22;;;;;;;6.72;3.65;;;37.40;24.20;;;;;;6316765;22;20070;-73
2021/09/06 11:15:50;;;;;;;5.53;3.42;;;37.80;24.20;;;;;;6315141;22;20015;-74
2021/09/06 11:18:18;;;;;;;5.60;3.22;;;37.50;23.60;;;;;;6315398;22;20254;-75
2021/09/06 11:20:47;;;;;;;9.50;4.17;;;38.40;22.70;;;;;;6316560;22;20026;-74
2021/09/06 11:23:14;;;;;;;6.80;3.90;;;36.90;24.50;;;;;;6316766;22;20082;-74
2021/09/06 11:25:43;;;;;;;9.20;3.70;;;37.60;25.30;;;;;;6316071;22;20292;-75
2021/09/06 11:28:16;;;;;;;5.43;3.05;;;39.10;23.90;;;;;;6316583;22;20015;-73
2021/09/06 11:30:45;;;;;;;6.53;3.47;;;39.30;22.90;;;;;;6316086;22;20050;-74
2021/09/06 11:33:14;;;;;;;5.95;3.28;;;40.00;21.60;;;;;;6316832;22;20019;-73
2021/09/06 11:35:44;;;;;;;5.80;3.55;;;39.50;23.20;;;;;;6288297;22;20016;-73
2021/09/06 11:38:12;;;;;;;7.65;3.83;;;39.50;23.50;;;;;;6316151;22;20030;-73
2021/09/06 11:40:41;;;;;;;8.70;3.85;;;40.30;22.90;;;;;;6272166;22;20172;-74
2021/09/06 11:43:13;;;;;;;5.88;3.53;;;41.10;22.20;;;;;;6314715;22;20030;-73
2021/09/06 11:45:43;;;;;;;7.00;4.28;;;41.00;22.20;;;;;;6283020;22;20071;-74
2021/09/06 11:48:11;;;;;;;6.03;3.92;;;40.00;23.10;;;;;;6283895;22;20207;-73
2021/09/06 11:50:41;;;;;;;6.60;4.53;;;40.00;23.10;;;;;;6284452;22;20035;-75
2021/09/06 11:53:15;;;;;;;7.07;4.72;;;40.70;22.70;;;;;;6287789;22;20015;-78
2021/09/06 11:55:53;;;;;;;7.97;3.85;;;41.00;22.10;;;;;;6283000;22;20027;-77
2021/09/06 11:58:25;;;;;;;7.22;4.00;;;41.00;21.70;;;;;;6282398;22;20208;-77
2021/09/06 12:01:03;;;;;;;7.20;4.32;;;40.00;23.10;;;;;;6280258;22;20015;-76
2021/09/06 12:03:30;;;;;;;;;;;39.80;23.50;;;;;;6284757;22;20034;-78
2021/09/06 12:06:06;;;;;;;11.73;4.18;;;41.10;22.50;;;;;;6285265;22;20219;-78
2021/09/06 12:08:35;;;;;;;5.63;3.10;;;40.90;21.80;;;;;;6284276;22;20020;-78
2021/09/06 12:11:07;;;;;;;7.05;3.50;;;39.20;22.60;;;;;;6283762;22;20042;-79
2021/09/06 12:13:35;;;;;;;8.98;3.70;;;38.80;24.00;;;;;;6284792;22;20020;-77
2021/09/06 12:16:05;;;;;;;;;;;37.90;23.80;;;;;;6287236;22;20024;-75
2021/09/06 12:18:36;;;;;;;6.38;3.30;;;38.00;23.90;;;;;;6283124;22;19911;-77
2021/09/06 12:21:06;;;;;;;6.93;3.85;;;38.90;22.90;;;;;;6285511;22;20016;-75
2021/09/06 12:23:35;;;;;;;7.35;4.18;;;39.80;22.80;;;;;;6285352;22;20027;-77
2021/09/06 12:26:03;;;;;;;6.72;3.38;;;40.60;22.30;;;;;;6285948;22;20027;-76
2021/09/06 12:28:31;;;;;;;7.30;4.05;;;40.90;21.60;;;;;;6285573;22;20032;-76
2021/09/06 12:31:02;;;;;;;7.13;4.03;;;40.60;21.40;;;;;;6286717;22;20258;-77
2021/09/06 12:33:32;;;;;;;7.35;4.60;;;39.50;22.70;;;;;;6285459;22;20027;-76
2021/09/06 12:36:02;;;;;;;7.60;4.35;;;40.40;22.30;;;;;;6285871;22;20012;-76
2021/09/06 12:38:31;;;;;;;5.72;3.70;;;41.30;21.60;;;;;;6285097;22;20039;-79
2021/09/06 12:40:58;;;;;;;7.72;3.92;;;41.70;21.50;;;;;;6286169;22;20023;-77
2021/09/06 12:43:26;;;;;;;9.68;4.15;;;41.20;21.20;;;;;;6287606;22;20271;-77
2021/09/06 12:45:53;;;;;;;6.37;3.87;;;37.50;25.00;;;;;;6316842;22;20022;-76
2021/09/06 12:48:20;;;;;;;7.38;3.58;;;37.50;25.80;;;;;;6288234;22;20651;-76
2021/09/06 12:50:49;;;;;;;5.38;3.33;;;38.20;24.90;;;;;;6316506;22;20242;-77
2021/09/06 12:53:17;;;;;;;7.25;3.88;;;39.80;22.70;;;;;;6289141;22;20015;-75
2021/09/06 12:55:44;;;;;;;7.20;3.53;;;40.00;22.40;;;;;;6315768;22;20015;-77
2021/09/06 12:58:12;;;;;;;7.40;3.70;;;38.80;23.60;;;;;;6288896;22;20312;-76